sensor_id;sensor_type;location;lat;lon;timestamp;pressure;altitude;pressure_sealevel;temperature;humidity
42705;BME280;28342;42.594;23.414;2022-09-11T00:01:20;94420.16;;;18.02;82.96
42705;BME280;28342;42.594;23.414;2022-09-11T00:03:47;94409.50;;;17.86;83.52
42705;BME280;28342;42.594;23.414;2022-09-11T00:06:18;94434.22;;;17.95;85.45
42705;BME280;28342;42.594;23.414;2022-09-11T00:08:45;94423.34;;;17.88;86.64
42705;BME280;28342;42.594;23.414;2022-09-11T00:11:18;94420.53;;;17.81;86.48
42705;BME280;28342;42.594;23.414;2022-09-11T00:13:47;94429.31;;;17.78;86.60
42705;BME280;28342;42.594;23.414;2022-09-11T00:18:48;94408.03;;;17.50;86.57
42705;BME280;28342;42.594;23.414;2022-09-11T00:21:14;94434.91;;;17.53;86.06
42705;BME280;28342;42.594;23.414;2022-09-11T00:23:40;94433.13;;;17.61;84.22
42705;BME280;28342;42.594;23.414;2022-09-11T00:26:06;94414.56;;;17.33;84.64
42705;BME280;28342;42.594;23.414;2022-09-11T00:28:35;94435.44;;;17.43;86.96
42705;BME280;28342;42.594;23.414;2022-09-11T00:31:05;94427.09;;;17.29;87.77
42705;BME280;28342;42.594;23.414;2022-09-11T00:33:32;94412.88;;;17.25;85.23
42705;BME280;28342;42.594;23.414;2022-09-11T00:36:03;94426.91;;;17.38;87.67
42705;BME280;28342;42.594;23.414;2022-09-11T00:38:51;94394.94;;;17.10;88.34
42705;BME280;28342;42.594;23.414;2022-09-11T00:41:32;94423.59;;;17.25;88.13
42705;BME280;28342;42.594;23.414;2022-09-11T00:44:05;94439.84;;;17.32;88.00
42705;BME280;28342;42.594;23.414;2022-09-11T00:46:36;94428.94;;;17.25;88.05
42705;BME280;28342;42.594;23.414;2022-09-11T00:49:21;94434.84;;;17.15;86.10
42705;BME280;28342;42.594;23.414;2022-09-11T00:52:02;94439.88;;;17.16;87.58
42705;BME280;28342;42.594;23.414;2022-09-11T00:54:32;94437.81;;;17.10;87.72
42705;BME280;28342;42.594;23.414;2022-09-11T00:57:05;94433.28;;;17.14;86.60
42705;BME280;28342;42.594;23.414;2022-09-11T00:59:32;94415.53;;;17.06;86.27
42705;BME280;28342;42.594;23.414;2022-09-11T01:01:58;94432.34;;;17.22;85.97
42705;BME280;28342;42.594;23.414;2022-09-11T01:04:25;94420.19;;;17.09;86.88
42705;BME280;28342;42.594;23.414;2022-09-11T01:06:55;94412.84;;;17.06;85.23
42705;BME280;28342;42.594;23.414;2022-09-11T01:09:24;94415.09;;;17.03;84.43
42705;BME280;28342;42.594;23.414;2022-09-11T01:12:05;94431.84;;;17.16;84.80
42705;BME280;28342;42.594;23.414;2022-09-11T01:20:40;94437.97;;;17.17;85.80
42705;BME280;28342;42.594;23.414;2022-09-11T01:23:36;94437.53;;;17.15;85.53
42705;BME280;28342;42.594;23.414;2022-09-11T01:26:37;94435.53;;;17.12;85.85
42705;BME280;28342;42.594;23.414;2022-09-11T01:29:13;94431.59;;;17.06;86.19
42705;BME280;28342;42.594;23.414;2022-09-11T01:31:57;94422.19;;;16.96;86.83
42705;BME280;28342;42.594;23.414;2022-09-11T01:37:23;94429.88;;;16.97;84.72
42705;BME280;28342;42.594;23.414;2022-09-11T01:39:59;94416.34;;;16.75;86.64
42705;BME280;28342;42.594;23.414;2022-09-11T01:42:28;94435.44;;;16.73;83.07
42705;BME280;28342;42.594;23.414;2022-09-11T01:44:58;94400.97;;;16.56;83.40
42705;BME280;28342;42.594;23.414;2022-09-11T01:47:26;94435.53;;;16.77;84.41
42705;BME280;28342;42.594;23.414;2022-09-11T01:50:01;94421.63;;;16.71;82.81
42705;BME280;28342;42.594;23.414;2022-09-11T01:52:45;94429.88;;;16.66;85.42
42705;BME280;28342;42.594;23.414;2022-09-11T01:55:16;94426.22;;;16.70;85.66
42705;BME280;28342;42.594;23.414;2022-09-11T01:57:53;94403.72;;;16.59;86.13
42705;BME280;28342;42.594;23.414;2022-09-11T02:00:20;94421.28;;;16.72;85.87
42705;BME280;28342;42.594;23.414;2022-09-11T02:02:58;94423.84;;;16.69;85.76
42705;BME280;28342;42.594;23.414;2022-09-11T02:05:31;94422.13;;;16.61;86.47
42705;BME280;28342;42.594;23.414;2022-09-11T02:08:07;94393.72;;;16.40;87.33
42705;BME280;28342;42.594;23.414;2022-09-11T02:10:39;94388.53;;;16.32;84.35
42705;BME280;28342;42.594;23.414;2022-09-11T02:13:13;94401.41;;;16.26;82.11
42705;BME280;28342;42.594;23.414;2022-09-11T02:15:43;94394.03;;;16.23;81.02
42705;BME280;28342;42.594;23.414;2022-09-11T02:18:19;94391.69;;;16.06;80.53
42705;BME280;28342;42.594;23.414;2022-09-11T02:20:49;94404.72;;;15.92;81.24
42705;BME280;28342;42.594;23.414;2022-09-11T02:23:17;94403.69;;;15.96;81.56
42705;BME280;28342;42.594;23.414;2022-09-11T02:25:42;94409.81;;;15.97;81.50
42705;BME280;28342;42.594;23.414;2022-09-11T02:28:08;94378.22;;;15.87;81.89
42705;BME280;28342;42.594;23.414;2022-09-11T02:30:33;94383.66;;;15.90;82.31
42705;BME280;28342;42.594;23.414;2022-09-11T02:32:59;94397.00;;;15.74;85.90
42705;BME280;28342;42.594;23.414;2022-09-11T02:35:30;94397.00;;;15.74;84.50
42705;BME280;28342;42.594;23.414;2022-09-11T02:40:59;94399.44;;;15.79;83.87
42705;BME280;28342;42.594;23.414;2022-09-11T02:44:08;94397.88;;;15.78;82.96
42705;BME280;28342;42.594;23.414;2022-09-11T02:47:08;94399.69;;;15.74;83.31
42705;BME280;28342;42.594;23.414;2022-09-11T02:57:52;94385.13;;;15.88;83.86
42705;BME280;28342;42.594;23.414;2022-09-11T03:00:19;94379.28;;;15.98;84.28
42705;BME280;28342;42.594;23.414;2022-09-11T03:02:46;94379.38;;;16.01;84.71
42705;BME280;28342;42.594;23.414;2022-09-11T03:05:12;94393.88;;;16.16;84.64
42705;BME280;28342;42.594;23.414;2022-09-11T03:07:39;94383.44;;;16.11;84.89
42705;BME280;28342;42.594;23.414;2022-09-11T03:10:06;94391.19;;;16.16;84.85
42705;BME280;28342;42.594;23.414;2022-09-11T03:12:32;94379.72;;;16.16;85.05
42705;BME280;28342;42.594;23.414;2022-09-11T03:15:00;94409.00;;;16.24;85.28
42705;BME280;28342;42.594;23.414;2022-09-11T03:17:27;94400.78;;;16.17;83.81
42705;BME280;28342;42.594;23.414;2022-09-11T03:19:52;94380.84;;;15.99;83.32
42705;BME280;28342;42.594;23.414;2022-09-11T03:22:18;94416.03;;;16.01;82.82
42705;BME280;28342;42.594;23.414;2022-09-11T03:24:44;94397.28;;;15.85;81.99
42705;BME280;28342;42.594;23.414;2022-09-11T03:27:10;94389.56;;;15.68;81.77
42705;BME280;28342;42.594;23.414;2022-09-11T03:29:35;94413.94;;;15.78;81.78
42705;BME280;28342;42.594;23.414;2022-09-11T03:32:02;94410.63;;;15.57;82.52
42705;BME280;28342;42.594;23.414;2022-09-11T03:34:27;94421.13;;;15.62;83.11
42705;BME280;28342;42.594;23.414;2022-09-11T03:36:53;94412.28;;;15.34;83.68
42705;BME280;28342;42.594;23.414;2022-09-11T03:39:19;94415.50;;;15.39;83.62
42705;BME280;28342;42.594;23.414;2022-09-11T03:41:44;94429.63;;;15.40;83.53
42705;BME280;28342;42.594;23.414;2022-09-11T03:44:10;94422.78;;;15.14;84.22
42705;BME280;28342;42.594;23.414;2022-09-11T03:46:37;94432.13;;;15.33;83.45
42705;BME280;28342;42.594;23.414;2022-09-11T03:49:02;94431.78;;;15.34;82.97
42705;BME280;28342;42.594;23.414;2022-09-11T03:51:27;94420.09;;;15.27;83.76
42705;BME280;28342;42.594;23.414;2022-09-11T03:53:59;94424.63;;;15.38;83.52
42705;BME280;28342;42.594;23.414;2022-09-11T03:56:27;94432.78;;;15.30;82.41
42705;BME280;28342;42.594;23.414;2022-09-11T03:58:55;94429.03;;;15.18;83.79
42705;BME280;28342;42.594;23.414;2022-09-11T04:01:25;94440.16;;;15.08;83.66
42705;BME280;28342;42.594;23.414;2022-09-11T04:03:50;94447.16;;;15.13;84.36
42705;BME280;28342;42.594;23.414;2022-09-11T04:06:22;94442.41;;;15.06;82.53
42705;BME280;28342;42.594;23.414;2022-09-11T04:08:48;94430.84;;;15.02;82.23
42705;BME280;28342;42.594;23.414;2022-09-11T04:11:13;94440.06;;;15.17;81.51
42705;BME280;28342;42.594;23.414;2022-09-11T04:13:40;94442.50;;;15.22;81.29
42705;BME280;28342;42.594;23.414;2022-09-11T04:16:15;94424.81;;;15.05;80.43
42705;BME280;28342;42.594;23.414;2022-09-11T04:18:42;94445.72;;;15.15;81.23
42705;BME280;28342;42.594;23.414;2022-09-11T04:21:11;94434.50;;;14.85;81.86
42705;BME280;28342;42.594;23.414;2022-09-11T04:23:37;94404.38;;;14.60;83.71
42705;BME280;28342;42.594;23.414;2022-09-11T04:26:12;94424.41;;;14.67;83.84
42705;BME280;28342;42.594;23.414;2022-09-11T04:28:45;94432.63;;;14.61;83.66
42705;BME280;28342;42.594;23.414;2022-09-11T04:31:26;94405.06;;;14.57;83.72
42705;BME280;28342;42.594;23.414;2022-09-11T04:33:57;94436.09;;;14.74;83.28
42705;BME280;28342;42.594;23.414;2022-09-11T04:36:23;94442.84;;;14.84;82.65
42705;BME280;28342;42.594;23.414;2022-09-11T04:38:54;94433.31;;;14.71;82.83
42705;BME280;28342;42.594;23.414;2022-09-11T04:41:20;94445.31;;;14.64;83.25
42705;BME280;28342;42.594;23.414;2022-09-11T04:43:57;94422.38;;;14.51;83.56
42705;BME280;28342;42.594;23.414;2022-09-11T04:46:40;94411.03;;;14.54;84.74
42705;BME280;28342;42.594;23.414;2022-09-11T04:49:07;94449.09;;;14.76;85.83
42705;BME280;28342;42.594;23.414;2022-09-11T04:51:50;94422.50;;;14.67;85.68
42705;BME280;28342;42.594;23.414;2022-09-11T04:54:20;94441.88;;;14.88;85.21
42705;BME280;28342;42.594;23.414;2022-09-11T04:57:21;94437.50;;;14.96;84.58
42705;BME280;28342;42.594;23.414;2022-09-11T05:00:14;94445.31;;;15.01;84.98
42705;BME280;28342;42.594;23.414;2022-09-11T05:03:05;94426.28;;;14.90;84.05
42705;BME280;28342;42.594;23.414;2022-09-11T05:05:31;94427.16;;;15.07;83.61
42705;BME280;28342;42.594;23.414;2022-09-11T05:07:56;94445.69;;;15.28;85.14
42705;BME280;28342;42.594;23.414;2022-09-11T05:10:30;94440.22;;;15.36;86.16
42705;BME280;28342;42.594;23.414;2022-09-11T05:12:55;94441.19;;;15.44;87.73
42705;BME280;28342;42.594;23.414;2022-09-11T05:15:21;94436.84;;;15.51;88.97
42705;BME280;28342;42.594;23.414;2022-09-11T05:17:47;94430.72;;;15.51;89.05
42705;BME280;28342;42.594;23.414;2022-09-11T05:20:12;94435.47;;;15.58;89.45
42705;BME280;28342;42.594;23.414;2022-09-11T05:22:37;94425.25;;;15.60;89.49
42705;BME280;28342;42.594;23.414;2022-09-11T05:25:03;94445.34;;;15.81;89.82
42705;BME280;28342;42.594;23.414;2022-09-11T05:27:29;94438.91;;;15.70;91.56
42705;BME280;28342;42.594;23.414;2022-09-11T05:29:55;94415.19;;;15.69;91.24
42705;BME280;28342;42.594;23.414;2022-09-11T05:32:24;94435.03;;;15.96;90.13
42705;BME280;28342;42.594;23.414;2022-09-11T05:35:00;94416.53;;;15.91;89.85
42705;BME280;28342;42.594;23.414;2022-09-11T05:37:32;94411.00;;;15.83;90.16
42705;BME280;28342;42.594;23.414;2022-09-11T05:39:57;94443.16;;;16.15;89.38
42705;BME280;28342;42.594;23.414;2022-09-11T05:42:24;94409.41;;;16.10;89.88
42705;BME280;28342;42.594;23.414;2022-09-11T05:44:53;94446.63;;;16.31;89.86
42705;BME280;28342;42.594;23.414;2022-09-11T05:47:18;94436.78;;;16.35;90.12
42705;BME280;28342;42.594;23.414;2022-09-11T05:49:45;94435.25;;;16.34;90.58
42705;BME280;28342;42.594;23.414;2022-09-11T05:52:10;94440.16;;;16.48;90.35
42705;BME280;28342;42.594;23.414;2022-09-11T05:54:44;94437.69;;;16.55;89.91
42705;BME280;28342;42.594;23.414;2022-09-11T05:57:10;94431.97;;;16.57;90.07
42705;BME280;28342;42.594;23.414;2022-09-11T05:59:35;94431.47;;;16.67;89.41
42705;BME280;28342;42.594;23.414;2022-09-11T06:02:01;94446.66;;;16.79;89.82
42705;BME280;28342;42.594;23.414;2022-09-11T06:04:27;94423.25;;;16.76;89.62
42705;BME280;28342;42.594;23.414;2022-09-11T06:06:53;94435.94;;;16.94;89.51
42705;BME280;28342;42.594;23.414;2022-09-11T06:09:18;94435.22;;;16.97;89.50
42705;BME280;28342;42.594;23.414;2022-09-11T06:11:44;94448.44;;;17.06;88.52
42705;BME280;28342;42.594;23.414;2022-09-11T06:14:12;94422.59;;;16.98;88.56
42705;BME280;28342;42.594;23.414;2022-09-11T06:16:37;94443.16;;;17.10;88.59
42705;BME280;28342;42.594;23.414;2022-09-11T06:19:03;94412.00;;;17.01;88.81
42705;BME280;28342;42.594;23.414;2022-09-11T06:21:29;94438.19;;;17.27;88.12
42705;BME280;28342;42.594;23.414;2022-09-11T06:23:54;94439.56;;;17.37;86.72
42705;BME280;28342;42.594;23.414;2022-09-11T06:26:22;94440.81;;;17.43;85.67
42705;BME280;28342;42.594;23.414;2022-09-11T06:28:48;94446.63;;;17.65;86.24
42705;BME280;28342;42.594;23.414;2022-09-11T06:31:17;94436.28;;;17.82;85.55
42705;BME280;28342;42.594;23.414;2022-09-11T06:33:43;94432.69;;;17.94;86.30
42705;BME280;28342;42.594;23.414;2022-09-11T06:36:14;94431.25;;;18.00;85.94
42705;BME280;28342;42.594;23.414;2022-09-11T06:38:40;94438.28;;;18.28;85.94
42705;BME280;28342;42.594;23.414;2022-09-11T06:41:12;94437.63;;;18.57;85.98
42705;BME280;28342;42.594;23.414;2022-09-11T06:43:38;94430.09;;;18.66;82.34
42705;BME280;28342;42.594;23.414;2022-09-11T06:46:30;94446.91;;;19.09;82.05
42705;BME280;28342;42.594;23.414;2022-09-11T06:49:03;94449.56;;;19.35;81.78
42705;BME280;28342;42.594;23.414;2022-09-11T06:51:57;94439.13;;;19.57;79.84
42705;BME280;28342;42.594;23.414;2022-09-11T06:55:03;94452.53;;;19.83;80.15
42705;BME280;28342;42.594;23.414;2022-09-11T06:57:54;94436.38;;;19.83;77.13
42705;BME280;28342;42.594;23.414;2022-09-11T07:03:35;94432.91;;;20.20;77.13
42705;BME280;28342;42.594;23.414;2022-09-11T07:06:28;94419.94;;;20.29;76.10
42705;BME280;28342;42.594;23.414;2022-09-11T07:10:00;94454.09;;;20.58;72.33
42705;BME280;28342;42.594;23.414;2022-09-11T07:16:22;94430.25;;;20.61;72.22
42705;BME280;28342;42.594;23.414;2022-09-11T07:22:37;94443.78;;;21.19;72.30
42705;BME280;28342;42.594;23.414;2022-09-11T07:28:50;94432.38;;;21.40;64.18
42705;BME280;28342;42.594;23.414;2022-09-11T07:34:59;94451.16;;;21.91;66.50
42705;BME280;28342;42.594;23.414;2022-09-11T07:40:43;94434.69;;;22.21;64.55
42705;BME280;28342;42.594;23.414;2022-09-11T07:59:57;94432.75;;;23.64;54.88
42705;BME280;28342;42.594;23.414;2022-09-11T08:02:24;94428.88;;;23.65;55.27
42705;BME280;28342;42.594;23.414;2022-09-11T08:04:49;94437.75;;;23.66;54.98
42705;BME280;28342;42.594;23.414;2022-09-11T08:07:15;94423.38;;;23.83;52.20
42705;BME280;28342;42.594;23.414;2022-09-11T08:09:41;94430.25;;;24.09;53.47
42705;BME280;28342;42.594;23.414;2022-09-11T08:12:08;94423.97;;;24.23;53.87
42705;BME280;28342;42.594;23.414;2022-09-11T08:14:34;94419.19;;;24.48;54.55
42705;BME280;28342;42.594;23.414;2022-09-11T08:17:01;94413.63;;;24.69;51.76
42705;BME280;28342;42.594;23.414;2022-09-11T08:19:26;94423.50;;;24.94;51.41
42705;BME280;28342;42.594;23.414;2022-09-11T08:21:51;94416.81;;;25.09;52.53
42705;BME280;28342;42.594;23.414;2022-09-11T08:24:17;94403.91;;;25.20;52.36
42705;BME280;28342;42.594;23.414;2022-09-11T08:26:44;94417.03;;;25.25;51.50
42705;BME280;28342;42.594;23.414;2022-09-11T08:29:10;94404.72;;;25.17;48.06
42705;BME280;28342;42.594;23.414;2022-09-11T08:31:35;94411.59;;;25.25;49.62
42705;BME280;28342;42.594;23.414;2022-09-11T08:34:01;94411.59;;;25.25;50.51
42705;BME280;28342;42.594;23.414;2022-09-11T08:36:27;94395.09;;;25.09;48.38
42705;BME280;28342;42.594;23.414;2022-09-11T08:38:53;94395.97;;;25.37;50.39
42705;BME280;28342;42.594;23.414;2022-09-11T08:43:57;94403.91;;;25.58;50.69
42705;BME280;28342;42.594;23.414;2022-09-11T08:46:34;94404.28;;;25.56;47.18
42705;BME280;28342;42.594;23.414;2022-09-11T08:51:49;94388.50;;;25.82;48.42
42705;BME280;28342;42.594;23.414;2022-09-11T08:54:28;94381.94;;;25.79;46.84
42705;BME280;28342;42.594;23.414;2022-09-11T08:57:27;94384.84;;;25.96;46.76
42705;BME280;28342;42.594;23.414;2022-09-11T09:00:15;94377.56;;;25.89;47.29
42705;BME280;28342;42.594;23.414;2022-09-11T09:05:40;94379.63;;;26.08;45.93
42705;BME280;28342;42.594;23.414;2022-09-11T09:10:56;94374.19;;;26.08;47.23
42705;BME280;28342;42.594;23.414;2022-09-11T09:19:22;94370.22;;;26.43;47.00
42705;BME280;28342;42.594;23.414;2022-09-11T09:24:31;94373.44;;;26.62;46.32
42705;BME280;28342;42.594;23.414;2022-09-11T09:26:58;94363.09;;;26.76;45.60
42705;BME280;28342;42.594;23.414;2022-09-11T09:29:30;94351.91;;;26.71;45.56
42705;BME280;28342;42.594;23.414;2022-09-11T09:32:05;94361.91;;;26.77;45.55
42705;BME280;28342;42.594;23.414;2022-09-11T09:34:33;94357.72;;;26.73;45.52
42705;BME280;28342;42.594;23.414;2022-09-11T09:37:21;94344.09;;;26.49;45.01
42705;BME280;28342;42.594;23.414;2022-09-11T09:39:47;94349.78;;;26.59;45.43
42705;BME280;28342;42.594;23.414;2022-09-11T09:47:36;94346.56;;;26.40;44.64
42705;BME280;28342;42.594;23.414;2022-09-11T09:50:16;94345.28;;;25.60;44.44
42705;BME280;28342;42.594;23.414;2022-09-11T09:52:44;94350.06;;;25.49;47.51
42705;BME280;28342;42.594;23.414;2022-09-11T09:55:15;94331.13;;;25.08;46.94
42705;BME280;28342;42.594;23.414;2022-09-11T09:57:41;94343.91;;;25.45;47.32
42705;BME280;28342;42.594;23.414;2022-09-11T10:07:45;94326.69;;;26.16;44.05
42705;BME280;28342;42.594;23.414;2022-09-11T10:12:54;94335.19;;;26.22;43.71
42705;BME280;28342;42.594;23.414;2022-09-11T10:15:22;94308.06;;;26.15;42.99
42705;BME280;28342;42.594;23.414;2022-09-11T10:17:49;94318.69;;;26.36;42.96
42705;BME280;28342;42.594;23.414;2022-09-11T10:22:43;94314.00;;;26.37;42.86
42705;BME280;28342;42.594;23.414;2022-09-11T10:28:04;94324.25;;;26.53;42.69
42705;BME280;28342;42.594;23.414;2022-09-11T10:30:33;94315.59;;;26.58;42.77
42705;BME280;28342;42.594;23.414;2022-09-11T10:33:01;94309.69;;;26.39;41.15
42705;BME280;28342;42.594;23.414;2022-09-11T10:35:29;94318.25;;;26.34;41.30
42705;BME280;28342;42.594;23.414;2022-09-11T10:38:04;94316.59;;;26.17;41.88
42705;BME280;28342;42.594;23.414;2022-09-11T10:40:33;94311.59;;;25.85;42.29
42705;BME280;28342;42.594;23.414;2022-09-11T10:42:58;94316.28;;;25.84;42.40
42705;BME280;28342;42.594;23.414;2022-09-11T10:45:24;94309.88;;;25.98;42.43
42705;BME280;28342;42.594;23.414;2022-09-11T10:47:49;94306.75;;;26.00;42.17
42705;BME280;28342;42.594;23.414;2022-09-11T10:55:37;94304.34;;;25.78;41.71
42705;BME280;28342;42.594;23.414;2022-09-11T10:58:08;94297.88;;;25.65;41.46
42705;BME280;28342;42.594;23.414;2022-09-11T11:00:36;94294.00;;;25.66;41.89
42705;BME280;28342;42.594;23.414;2022-09-11T11:03:04;94278.50;;;25.63;42.88
42705;BME280;28342;42.594;23.414;2022-09-11T11:19:12;94288.25;;;25.30;43.94
42705;BME280;28342;42.594;23.414;2022-09-11T11:27:30;94260.75;;;25.24;43.50
42705;BME280;28342;42.594;23.414;2022-09-11T11:35:58;94255.97;;;25.36;45.25
42705;BME280;28342;42.594;23.414;2022-09-11T11:38:53;94251.72;;;25.35;46.08
42705;BME280;28342;42.594;23.414;2022-09-11T11:42:07;94245.47;;;25.38;45.16
42705;BME280;28342;42.594;23.414;2022-09-11T11:44:40;94248.47;;;25.47;44.10
42705;BME280;28342;42.594;23.414;2022-09-11T11:47:09;94245.41;;;25.45;44.14
42705;BME280;28342;42.594;23.414;2022-09-11T11:52:37;94233.19;;;25.29;44.90
42705;BME280;28342;42.594;23.414;2022-09-11T11:55:15;94245.28;;;25.21;44.76
42705;BME280;28342;42.594;23.414;2022-09-11T11:57:47;94235.00;;;25.06;45.05
42705;BME280;28342;42.594;23.414;2022-09-11T12:00:15;94244.75;;;25.03;44.98
42705;BME280;28342;42.594;23.414;2022-09-11T12:02:51;94234.19;;;25.12;45.41
42705;BME280;28342;42.594;23.414;2022-09-11T12:05:20;94231.06;;;25.10;46.76
42705;BME280;28342;42.594;23.414;2022-09-11T12:07:48;94236.47;;;25.14;46.11
42705;BME280;28342;42.594;23.414;2022-09-11T12:10:34;94230.31;;;25.10;46.38
42705;BME280;28342;42.594;23.414;2022-09-11T12:13:05;94226.16;;;24.98;46.70
42705;BME280;28342;42.594;23.414;2022-09-11T12:15:32;94222.25;;;25.02;45.22
42705;BME280;28342;42.594;23.414;2022-09-11T12:20:42;94215.31;;;24.98;45.39
42705;BME280;28342;42.594;23.414;2022-09-11T12:26:22;94211.00;;;25.04;44.83
42705;BME280;28342;42.594;23.414;2022-09-11T12:34:16;94204.63;;;25.18;45.59
42705;BME280;28342;42.594;23.414;2022-09-11T12:36:49;94204.56;;;25.21;45.37
42705;BME280;28342;42.594;23.414;2022-09-11T12:39:33;94193.94;;;25.34;45.29
42705;BME280;28342;42.594;23.414;2022-09-11T12:47:20;94182.25;;;25.64;44.65
42705;BME280;28342;42.594;23.414;2022-09-11T12:50:13;94182.25;;;25.64;43.99
42705;BME280;28342;42.594;23.414;2022-09-11T12:52:48;94187.19;;;25.73;44.04
42705;BME280;28342;42.594;23.414;2022-09-11T12:55:40;94186.06;;;25.70;43.75
42705;BME280;28342;42.594;23.414;2022-09-11T12:58:27;94175.00;;;25.84;43.89
42705;BME280;28342;42.594;23.414;2022-09-11T13:03:44;94180.31;;;25.38;43.15
42705;BME280;28342;42.594;23.414;2022-09-11T13:06:13;94189.56;;;25.44;43.60
42705;BME280;28342;42.594;23.414;2022-09-11T13:08:48;94162.94;;;25.31;43.42
42705;BME280;28342;42.594;23.414;2022-09-11T13:11:38;94180.22;;;25.45;43.83
42705;BME280;28342;42.594;23.414;2022-09-11T13:14:37;94176.97;;;25.53;43.77
42705;BME280;28342;42.594;23.414;2022-09-11T13:16:50;94174.97;;;25.57;44.22
42705;BME280;28342;42.594;23.414;2022-09-11T13:19:16;94157.31;;;25.46;44.16
42705;BME280;28342;42.594;23.414;2022-09-11T13:21:46;94154.25;;;25.44;44.58
42705;BME280;28342;42.594;23.414;2022-09-11T13:24:31;94138.19;;;25.53;43.65
42705;BME280;28342;42.594;23.414;2022-09-11T13:27:04;94147.09;;;25.53;44.04
42705;BME280;28342;42.594;23.414;2022-09-11T13:29:33;94142.56;;;25.74;44.75
42705;BME280;28342;42.594;23.414;2022-09-11T13:32:05;94131.94;;;25.56;43.53
42705;BME280;28342;42.594;23.414;2022-09-11T13:34:32;94131.28;;;25.48;43.20
42705;BME280;28342;42.594;23.414;2022-09-11T13:37:07;94132.69;;;25.33;43.37
42705;BME280;28342;42.594;23.414;2022-09-11T13:39:39;94129.44;;;25.42;44.42
42705;BME280;28342;42.594;23.414;2022-09-11T13:42:11;94101.06;;;25.46;44.36
42705;BME280;28342;42.594;23.414;2022-09-11T13:44:42;94123.25;;;25.68;43.03
42705;BME280;28342;42.594;23.414;2022-09-11T13:47:38;94121.47;;;25.81;42.91
42705;BME280;28342;42.594;23.414;2022-09-11T13:50:07;94113.81;;;25.76;42.08
42705;BME280;28342;42.594;23.414;2022-09-11T13:52:34;94127.03;;;25.74;41.59
42705;BME280;28342;42.594;23.414;2022-09-11T13:55:08;94128.28;;;25.66;42.21
42705;BME280;28342;42.594;23.414;2022-09-11T13:57:49;94119.53;;;25.55;41.75
42705;BME280;28342;42.594;23.414;2022-09-11T14:00:46;94121.19;;;25.49;42.62
42705;BME280;28342;42.594;23.414;2022-09-11T14:03:27;94121.25;;;25.45;42.75
42705;BME280;28342;42.594;23.414;2022-09-11T14:05:55;94125.56;;;25.43;42.96
42705;BME280;28342;42.594;23.414;2022-09-11T14:08:26;94122.22;;;25.31;43.50
42705;BME280;28342;42.594;23.414;2022-09-11T14:10:55;94106.78;;;25.28;42.97
42705;BME280;28342;42.594;23.414;2022-09-11T14:13:40;94099.94;;;25.17;44.78
42705;BME280;28342;42.594;23.414;2022-09-11T14:18:40;94098.50;;;25.36;44.29
42705;BME280;28342;42.594;23.414;2022-09-11T14:21:21;94088.13;;;25.30;44.33
42705;BME280;28342;42.594;23.414;2022-09-11T14:23:52;94101.06;;;25.19;43.88
42705;BME280;28342;42.594;23.414;2022-09-11T14:26:43;94106.03;;;25.24;44.25
42705;BME280;28342;42.594;23.414;2022-09-11T14:31:43;94097.84;;;25.01;44.60
42705;BME280;28342;42.594;23.414;2022-09-11T14:34:18;94085.50;;;24.93;44.19
42705;BME280;28342;42.594;23.414;2022-09-11T14:37:04;94093.97;;;25.02;44.10
42705;BME280;28342;42.594;23.414;2022-09-11T14:39:53;94103.09;;;25.15;45.34
42705;BME280;28342;42.594;23.414;2022-09-11T14:42:22;94095.50;;;25.03;45.12
42705;BME280;28342;42.594;23.414;2022-09-11T14:44:49;94085.47;;;25.00;44.92
42705;BME280;28342;42.594;23.414;2022-09-11T14:47:17;94090.78;;;25.07;44.38
42705;BME280;28342;42.594;23.414;2022-09-11T14:49:47;94087.38;;;24.99;44.21
42705;BME280;28342;42.594;23.414;2022-09-11T14:52:16;94067.47;;;24.83;45.27
42705;BME280;28342;42.594;23.414;2022-09-11T14:54:42;94086.34;;;24.90;45.57
42705;BME280;28342;42.594;23.414;2022-09-11T14:57:19;94070.88;;;24.87;45.11
42705;BME280;28342;42.594;23.414;2022-09-11T14:59:44;94077.03;;;24.91;46.82
42705;BME280;28342;42.594;23.414;2022-09-11T15:02:12;94085.47;;;24.96;45.65
42705;BME280;28342;42.594;23.414;2022-09-11T15:04:38;94075.84;;;24.92;45.53
42705;BME280;28342;42.594;23.414;2022-09-11T15:07:04;94073.25;;;24.81;45.57
42705;BME280;28342;42.594;23.414;2022-09-11T15:09:38;94065.66;;;24.72;46.45
42705;BME280;28342;42.594;23.414;2022-09-11T15:12:04;94075.66;;;24.76;46.48
42705;BME280;28342;42.594;23.414;2022-09-11T15:14:29;94080.44;;;24.68;45.57
42705;BME280;28342;42.594;23.414;2022-09-11T15:16:57;94080.84;;;24.66;45.89
42705;BME280;28342;42.594;23.414;2022-09-11T15:19:24;94082.00;;;24.65;45.92
42705;BME280;28342;42.594;23.414;2022-09-11T15:21:49;94076.63;;;24.62;46.25
42705;BME280;28342;42.594;23.414;2022-09-11T15:24:15;94081.75;;;24.56;45.76
42705;BME280;28342;42.594;23.414;2022-09-11T15:26:41;94072.13;;;24.48;45.43
42705;BME280;28342;42.594;23.414;2022-09-11T15:29:06;94080.38;;;24.41;44.54
42705;BME280;28342;42.594;23.414;2022-09-11T15:31:35;94077.72;;;24.37;44.09
42705;BME280;28342;42.594;23.414;2022-09-11T15:34:01;94079.25;;;24.35;45.35
42705;BME280;28342;42.594;23.414;2022-09-11T15:36:34;94072.31;;;24.34;45.35
42705;BME280;28342;42.594;23.414;2022-09-11T15:39:02;94070.03;;;24.29;45.33
42705;BME280;28342;42.594;23.414;2022-09-11T15:41:27;94071.19;;;24.28;45.59
42705;BME280;28342;42.594;23.414;2022-09-11T15:43:54;94068.59;;;24.21;46.98
42705;BME280;28342;42.594;23.414;2022-09-11T15:46:20;94067.09;;;24.12;47.51
42705;BME280;28342;42.594;23.414;2022-09-11T15:48:47;94072.63;;;24.05;49.71
42705;BME280;28342;42.594;23.414;2022-09-11T15:51:19;94075.78;;;23.97;49.89
42705;BME280;28342;42.594;23.414;2022-09-11T15:53:45;94079.34;;;23.90;51.18